createdAt,value
2019-01-14T00:01:10.023Z,0.10
2019-01-14T00:03:38.266Z,0.20
2019-01-14T00:06:10.253Z,0.53
2019-01-14T00:08:36.788Z,0.07
2019-01-14T00:11:04.973Z,0.00
2019-01-14T00:13:33.105Z,0.00
2019-01-14T00:16:01.395Z,0.00
2019-01-14T00:18:29.730Z,0.03
2019-01-14T00:20:58.107Z,0.00
2019-01-14T00:23:26.244Z,0.00
2019-01-14T00:25:54.952Z,0.20
2019-01-14T00:28:23.097Z,0.10
2019-01-14T00:30:51.277Z,0.00
2019-01-14T00:33:19.550Z,0.67
2019-01-14T00:35:47.647Z,0.00
2019-01-14T00:38:15.919Z,0.00
2019-01-14T00:40:44.142Z,0.00
2019-01-14T00:43:12.465Z,0.10
2019-01-14T00:45:40.621Z,0.00
2019-01-14T00:48:08.696Z,0.00
2019-01-14T00:50:37.160Z,0.00
2019-01-14T00:53:05.500Z,0.00
2019-01-14T00:55:33.701Z,0.00
2019-01-14T00:58:01.894Z,0.00
2019-01-14T01:00:30.084Z,0.63
2019-01-14T01:02:58.390Z,0.00
2019-01-14T01:05:26.579Z,0.00
2019-01-14T01:07:54.764Z,0.00
2019-01-14T01:10:23.136Z,0.00
2019-01-14T01:12:51.216Z,0.00
2019-01-14T01:15:19.311Z,0.00
2019-01-14T01:17:47.464Z,0.00
2019-01-14T01:20:19.141Z,0.00
2019-01-14T01:22:47.450Z,0.00
2019-01-14T01:25:16.089Z,0.00
2019-01-14T01:27:44.468Z,0.00
2019-01-14T01:30:14.849Z,0.00
2019-01-14T01:32:43.640Z,0.00
2019-01-14T01:35:13.106Z,0.10
2019-01-14T01:37:41.452Z,0.00
2019-01-14T01:40:15.400Z,0.00
2019-01-14T01:42:43.686Z,0.00
2019-01-14T01:45:15.345Z,0.00
2019-01-14T01:47:43.571Z,1.17
2019-01-14T01:50:13.624Z,0.00
2019-01-14T01:52:41.963Z,0.00
2019-01-14T01:55:11.202Z,0.00
2019-01-14T01:57:39.333Z,0.00
2019-01-14T02:00:10.618Z,0.10
2019-01-14T02:02:38.867Z,1.17
2019-01-14T02:05:08.425Z,0.00
2019-01-14T02:07:36.523Z,0.00
2019-01-14T02:10:06.245Z,0.03
2019-01-14T02:12:34.432Z,0.07
2019-01-14T02:15:02.796Z,0.83
2019-01-14T02:17:30.870Z,0.20
2019-01-14T02:19:59.005Z,0.10
2019-01-14T02:22:27.538Z,0.00
2019-01-14T02:24:55.625Z,0.00
2019-01-14T02:27:23.755Z,0.00
2019-01-14T02:29:51.839Z,0.67
2019-01-14T02:32:20.037Z,0.00
2019-01-14T02:34:48.130Z,0.00
2019-01-14T02:37:16.212Z,0.00
2019-01-14T02:39:44.342Z,0.13
2019-01-14T02:42:14.288Z,0.00
2019-01-14T02:44:42.774Z,0.00
2019-01-14T02:47:10.860Z,0.47
2019-01-14T02:49:39.011Z,0.00
2019-01-14T02:52:07.088Z,0.00
2019-01-14T02:54:35.188Z,0.00
2019-01-14T02:57:03.453Z,0.00
2019-01-14T02:59:31.546Z,0.00
2019-01-14T03:01:59.765Z,2.20
2019-01-14T03:04:27.857Z,0.00
2019-01-14T03:06:57.905Z,0.00
2019-01-14T03:09:25.962Z,0.30
2019-01-14T03:11:54.085Z,0.00
2019-01-14T03:14:22.296Z,0.20
2019-01-14T03:16:50.436Z,0.00
2019-01-14T03:19:18.520Z,0.00
2019-01-14T03:21:46.665Z,0.00
2019-01-14T03:24:14.749Z,0.23
2019-01-14T03:26:42.962Z,0.00
2019-01-14T03:29:11.042Z,0.00
2019-01-14T03:31:39.629Z,0.10
2019-01-14T03:34:07.796Z,0.30
2019-01-14T03:36:36.091Z,0.33
2019-01-14T03:39:07.045Z,0.00
2019-01-14T03:41:35.463Z,0.00
2019-01-14T03:44:04.110Z,0.00
2019-01-14T03:46:32.202Z,0.00
2019-01-14T03:49:00.426Z,0.00
2019-01-14T03:51:28.531Z,0.00
2019-01-14T03:53:56.605Z,0.83
2019-01-14T03:56:25.291Z,0.00
2019-01-14T03:58:53.455Z,0.00
2019-01-14T04:01:21.514Z,0.00
2019-01-14T04:03:49.742Z,0.00
2019-01-14T04:06:17.820Z,0.00
2019-01-14T04:08:45.930Z,0.00
2019-01-14T04:11:14.078Z,0.00
2019-01-14T04:13:42.397Z,0.00
2019-01-14T04:16:10.474Z,0.00
2019-01-14T04:18:38.608Z,0.00
2019-01-14T04:21:06.803Z,0.00
2019-01-14T04:23:35.341Z,0.00
2019-01-14T04:26:03.537Z,0.13
2019-01-14T04:28:31.613Z,1.10
2019-01-14T04:31:00.239Z,0.63
2019-01-14T04:33:28.412Z,0.00
2019-01-14T04:35:56.548Z,0.00
2019-01-14T04:38:24.626Z,0.00
2019-01-14T04:40:52.868Z,0.00
2019-01-14T04:43:21.005Z,0.00
2019-01-14T04:45:49.134Z,0.00
2019-01-14T04:48:17.217Z,0.00
2019-01-14T04:50:45.455Z,0.00
2019-01-14T04:53:13.533Z,0.00
2019-01-14T04:55:41.612Z,0.00
2019-01-14T04:58:09.753Z,0.00
2019-01-14T05:00:37.946Z,0.00
2019-01-14T05:03:06.149Z,0.00
2019-01-14T05:05:34.331Z,0.00
2019-01-14T05:08:03.228Z,0.00
2019-01-14T05:10:31.287Z,0.00
2019-01-14T05:12:59.523Z,0.00
2019-01-14T05:15:27.592Z,0.00
2019-01-14T05:17:55.669Z,0.00
2019-01-14T05:20:25.727Z,0.00
2019-01-14T05:22:54.394Z,0.00
2019-01-14T05:25:22.608Z,0.00
2019-01-14T05:27:50.798Z,0.00
2019-01-14T05:30:19.293Z,0.00
2019-01-14T05:32:47.557Z,0.00
2019-01-14T05:35:15.835Z,0.00
2019-01-14T05:37:43.958Z,0.27
2019-01-14T05:40:14.365Z,0.00
2019-01-14T05:42:42.512Z,0.00
2019-01-14T05:45:10.866Z,0.00
2019-01-14T05:47:39.034Z,0.17
2019-01-14T05:50:08.683Z,0.20
2019-01-14T05:52:36.792Z,0.10
2019-01-14T05:55:05.771Z,0.00
2019-01-14T05:57:34.289Z,0.00
2019-01-14T06:00:03.405Z,0.33
2019-01-14T06:02:31.577Z,0.30
2019-01-14T06:04:59.865Z,0.00
2019-01-14T06:07:27.940Z,0.00
2019-01-14T06:09:56.009Z,0.10
2019-01-14T06:12:24.134Z,0.00
2019-01-14T06:14:52.202Z,0.00
2019-01-14T06:17:20.296Z,0.00
2019-01-14T06:19:48.921Z,0.17
2019-01-14T06:22:16.985Z,0.00
2019-01-14T06:24:45.108Z,0.00
2019-01-14T06:27:13.182Z,0.00
2019-01-14T06:29:41.257Z,0.10
2019-01-14T06:32:09.448Z,0.00
2019-01-14T06:34:37.534Z,0.00
2019-01-14T06:37:06.052Z,0.00
2019-01-14T06:39:34.181Z,0.10
2019-01-14T06:42:02.409Z,0.00
2019-01-14T06:44:30.880Z,1.80
2019-01-14T06:46:59.001Z,2.33
2019-01-14T06:49:27.061Z,0.10
2019-01-14T06:51:55.872Z,0.00
2019-01-14T06:54:24.000Z,0.20
2019-01-14T06:56:52.084Z,0.00
2019-01-14T06:59:20.385Z,0.10
2019-01-14T07:01:48.456Z,0.30
2019-01-14T07:04:16.529Z,0.37
2019-01-14T07:06:44.747Z,0.83
2019-01-14T07:09:13.008Z,8.97
2019-01-14T07:11:42.465Z,9.97
2019-01-14T07:14:10.588Z,5.03
2019-01-14T07:16:38.913Z,0.90
2019-01-14T07:19:06.972Z,0.70
2019-01-14T07:21:35.402Z,0.00
2019-01-14T07:24:03.656Z,0.10
2019-01-14T07:26:31.809Z,0.13
2019-01-14T07:28:59.981Z,0.00
2019-01-14T07:31:28.301Z,0.00
2019-01-14T07:33:56.370Z,1.17
2019-01-14T07:36:24.592Z,0.00
2019-01-14T07:38:52.809Z,0.00
2019-01-14T07:41:21.096Z,0.17
2019-01-14T07:43:49.333Z,0.00
2019-01-14T07:46:17.392Z,0.00
2019-01-14T07:48:45.517Z,0.00
2019-01-14T07:51:14.153Z,0.00
2019-01-14T07:53:42.419Z,0.00
2019-01-14T07:56:11.280Z,0.00
2019-01-14T07:58:39.665Z,3.00
2019-01-14T08:01:07.781Z,0.00
2019-01-14T08:03:36.515Z,0.10
2019-01-14T08:06:04.696Z,0.00
2019-01-14T08:08:32.869Z,0.00
2019-01-14T08:11:00.929Z,0.00
2019-01-14T08:13:29.249Z,1.03
2019-01-14T08:15:57.556Z,0.10
2019-01-14T08:18:25.630Z,0.30
2019-01-14T08:20:53.689Z,0.00
2019-01-14T08:23:21.819Z,0.33
2019-01-14T08:25:50.308Z,0.00
2019-01-14T08:28:19.012Z,0.30
2019-01-14T08:30:47.203Z,0.10
2019-01-14T08:33:15.909Z,0.20
2019-01-14T08:35:44.076Z,0.40
2019-01-14T08:38:12.369Z,0.00
2019-01-14T08:40:40.470Z,0.00
2019-01-14T08:43:09.132Z,0.00
2019-01-14T08:45:37.406Z,0.00
2019-01-14T08:48:05.597Z,0.10
2019-01-14T08:50:33.688Z,0.00
2019-01-14T08:53:01.843Z,0.47
2019-01-14T08:55:30.340Z,0.00
2019-01-14T08:57:58.457Z,0.07
2019-01-14T09:00:26.610Z,0.03
2019-01-14T09:02:54.807Z,0.00
2019-01-14T09:05:23.433Z,0.00
2019-01-14T09:07:51.655Z,0.00
2019-01-14T09:10:24.702Z,0.00
2019-01-14T09:12:53.001Z,0.00
2019-01-14T09:15:21.319Z,0.37
2019-01-14T09:17:49.618Z,0.10
2019-01-14T09:20:19.325Z,1.07
2019-01-14T09:22:47.658Z,0.47
2019-01-14T09:25:16.325Z,2.00
2019-01-14T09:27:44.618Z,1.03
2019-01-14T09:30:18.326Z,0.33
2019-01-14T09:32:46.629Z,0.10
2019-01-14T09:35:15.037Z,0.57
2019-01-14T09:37:43.261Z,0.37
2019-01-14T09:40:13.517Z,0.40
2019-01-14T09:42:42.180Z,0.00
2019-01-14T09:45:11.406Z,0.20
2019-01-14T09:47:40.172Z,0.40
2019-01-14T09:50:09.850Z,0.10
2019-01-14T09:52:38.593Z,0.33
2019-01-14T09:55:09.125Z,0.20
2019-01-14T09:57:37.538Z,0.37
2019-01-14T10:00:07.534Z,0.20
2019-01-14T10:02:35.907Z,0.90
2019-01-14T10:05:05.769Z,1.37
2019-01-14T10:07:33.849Z,0.30
2019-01-14T10:10:02.205Z,1.03
2019-01-14T10:12:30.399Z,1.03
2019-01-14T10:14:58.630Z,0.40
2019-01-14T10:17:28.433Z,1.07
2019-01-14T10:19:56.756Z,0.53
2019-01-14T10:22:24.932Z,0.47
2019-01-14T10:24:53.081Z,0.47
2019-01-14T10:27:21.148Z,0.37
2019-01-14T10:29:49.290Z,1.40
2019-01-14T10:32:17.378Z,0.20
2019-01-14T10:34:45.625Z,1.70
2019-01-14T10:37:13.913Z,0.30
2019-01-14T10:39:42.104Z,0.27
2019-01-14T10:42:10.289Z,0.20
2019-01-14T10:44:38.413Z,0.30
2019-01-14T10:47:06.503Z,0.67
2019-01-14T10:49:34.644Z,0.23
2019-01-14T10:52:02.917Z,0.50
2019-01-14T10:54:31.410Z,0.30
2019-01-14T10:56:59.494Z,0.70
2019-01-14T10:59:27.718Z,1.80
2019-01-14T11:01:56.425Z,0.33
2019-01-14T11:04:24.705Z,0.60
2019-01-14T11:06:54.642Z,0.73
2019-01-14T11:09:22.721Z,1.23
2019-01-14T11:11:50.950Z,0.60
2019-01-14T11:14:19.040Z,2.17
2019-01-14T11:16:47.221Z,0.73
2019-01-14T11:19:15.406Z,0.70
2019-01-14T11:21:43.541Z,1.13
2019-01-14T11:24:11.628Z,0.70
2019-01-14T11:26:39.843Z,1.03
2019-01-14T11:29:08.403Z,0.67
2019-01-14T11:31:36.626Z,0.77
2019-01-14T11:34:04.774Z,1.47
2019-01-14T11:36:33.317Z,0.30
2019-01-14T11:39:05.221Z,1.63
2019-01-14T11:41:32.361Z,1.17
2019-01-14T11:44:00.590Z,0.67
2019-01-14T11:46:28.769Z,1.70
2019-01-14T11:48:56.857Z,0.67
2019-01-14T11:51:25.105Z,3.17
2019-01-14T11:53:53.773Z,0.97
2019-01-14T11:56:21.934Z,1.33
2019-01-14T11:58:50.017Z,0.80
2019-01-14T12:01:18.342Z,0.60
2019-01-14T12:03:46.783Z,0.80
2019-01-14T12:06:14.890Z,0.60
2019-01-14T12:08:42.971Z,0.33
2019-01-14T12:11:11.314Z,0.67
2019-01-14T12:13:39.394Z,0.67
2019-01-14T12:16:08.069Z,0.40
2019-01-14T12:18:36.263Z,1.03
2019-01-14T12:21:04.490Z,0.70
2019-01-14T12:23:32.670Z,1.73
2019-01-14T12:26:01.156Z,1.00
2019-01-14T12:28:29.241Z,1.57
2019-01-14T12:30:57.441Z,0.67
2019-01-14T12:33:25.517Z,2.93
2019-01-14T12:35:53.658Z,4.73
2019-01-14T12:38:21.734Z,0.70
2019-01-14T12:40:50.255Z,1.77
2019-01-14T12:43:20.112Z,1.40
2019-01-14T12:45:48.422Z,2.00
2019-01-14T12:48:16.657Z,1.03
2019-01-14T12:50:44.736Z,1.30
2019-01-14T12:53:12.963Z,2.37
2019-01-14T12:55:41.043Z,1.07
2019-01-14T12:58:09.174Z,2.10
2019-01-14T13:00:37.363Z,0.80
2019-01-14T13:03:05.710Z,1.53
2019-01-14T13:05:34.000Z,1.43
2019-01-14T13:08:02.835Z,2.33
2019-01-14T13:10:30.923Z,1.47
2019-01-14T13:12:59.162Z,1.40
2019-01-14T13:15:28.493Z,1.70
2019-01-14T13:17:56.656Z,2.63
2019-01-14T13:20:24.909Z,2.07
2019-01-14T13:22:53.045Z,1.67
2019-01-14T13:25:21.458Z,2.47
2019-01-14T13:27:49.754Z,2.77
2019-01-14T13:30:23.064Z,2.20
2019-01-14T13:32:51.833Z,3.80
2019-01-14T13:35:20.125Z,2.83
2019-01-14T13:37:48.553Z,1.00
2019-01-14T13:40:16.832Z,1.63
2019-01-14T13:42:45.182Z,1.27
2019-01-14T13:45:16.045Z,2.60
2019-01-14T13:47:44.722Z,1.07
2019-01-14T13:50:15.217Z,1.93
2019-01-14T13:52:43.460Z,2.07
2019-01-14T13:55:13.369Z,1.43
2019-01-14T13:57:41.692Z,2.77
2019-01-14T14:00:19.489Z,2.20
2019-01-14T14:02:47.727Z,1.80
2019-01-14T14:05:16.619Z,3.63
2019-01-14T14:07:45.066Z,1.00
2019-01-14T14:10:17.404Z,1.97
2019-01-14T14:12:45.722Z,1.50
2019-01-14T14:15:14.598Z,2.37
2019-01-14T14:17:42.781Z,1.30
2019-01-14T14:20:12.705Z,3.00
2019-01-14T14:22:41.286Z,2.83
2019-01-14T14:25:09.914Z,0.63
2019-01-14T14:27:38.437Z,1.23
2019-01-14T14:30:20.052Z,0.80
2019-01-14T14:32:48.129Z,1.70
2019-01-14T14:35:16.361Z,1.07
2019-01-14T14:37:44.557Z,0.97
2019-01-14T14:40:12.983Z,1.20
2019-01-14T14:42:41.556Z,2.10
2019-01-14T14:45:10.449Z,1.10
2019-01-14T14:47:38.685Z,3.03
2019-01-14T14:50:09.833Z,1.43
2019-01-14T14:52:38.022Z,1.87
2019-01-14T14:55:07.035Z,2.60
2019-01-14T14:57:35.113Z,1.13
2019-01-14T15:00:05.740Z,1.80
2019-01-14T15:02:34.273Z,1.50
2019-01-14T15:05:02.717Z,1.73
2019-01-14T15:07:31.328Z,1.20
2019-01-14T15:09:59.777Z,2.13
2019-01-14T15:12:27.941Z,1.07
2019-01-14T15:14:56.189Z,3.53
2019-01-14T15:17:24.432Z,1.27
2019-01-14T15:19:53.040Z,1.33
2019-01-14T15:22:21.120Z,1.73
2019-01-14T15:24:49.282Z,1.20
2019-01-14T15:27:17.454Z,4.40
2019-01-14T15:29:45.588Z,2.17
2019-01-14T15:32:13.864Z,1.40
2019-01-14T15:34:42.005Z,1.07
2019-01-14T15:37:10.085Z,0.90
2019-01-14T15:39:38.310Z,1.23
2019-01-14T15:42:06.909Z,0.90
2019-01-14T15:44:35.062Z,2.83
2019-01-14T15:47:03.197Z,1.00
2019-01-14T15:49:31.352Z,1.30
2019-01-14T15:52:00.593Z,1.40
2019-01-14T15:54:28.991Z,2.77
2019-01-14T15:56:57.491Z,1.47
2019-01-14T15:59:25.637Z,2.30
2019-01-14T16:01:53.837Z,2.10
2019-01-14T16:04:21.980Z,1.80
2019-01-14T16:06:50.084Z,2.33
2019-01-14T16:09:18.227Z,2.53
2019-01-14T16:11:46.348Z,1.97
2019-01-14T16:14:14.447Z,2.67
2019-01-14T16:16:42.670Z,2.63
2019-01-14T16:19:11.206Z,1.70
2019-01-14T16:21:39.951Z,1.53
2019-01-14T16:24:08.244Z,1.20
2019-01-14T16:26:36.485Z,1.63
2019-01-14T16:29:04.697Z,2.17
2019-01-14T16:31:33.282Z,3.10
2019-01-14T16:34:01.460Z,2.43
2019-01-14T16:36:29.589Z,1.53
2019-01-14T16:38:57.695Z,1.10
2019-01-14T16:41:25.852Z,1.97
2019-01-14T16:43:53.942Z,3.20
2019-01-14T16:46:22.116Z,3.60
2019-01-14T16:48:50.436Z,2.57
2019-01-14T16:51:18.978Z,3.17
2019-01-14T16:53:47.070Z,2.87
2019-01-14T16:56:15.201Z,1.70
2019-01-14T16:58:44.418Z,3.90
2019-01-14T17:01:12.659Z,3.37
2019-01-14T17:03:40.767Z,2.50
2019-01-14T17:06:09.065Z,2.77
2019-01-14T17:08:37.304Z,2.33
2019-01-14T17:11:05.747Z,1.83
2019-01-14T17:13:33.827Z,3.47
2019-01-14T17:16:01.951Z,2.00
2019-01-14T17:18:30.042Z,1.80
2019-01-14T17:20:58.170Z,2.00
2019-01-14T17:23:26.249Z,3.67
2019-01-14T17:25:54.502Z,2.87
2019-01-14T17:28:23.269Z,3.00
2019-01-14T17:30:51.720Z,3.23
2019-01-14T17:33:19.902Z,3.63
2019-01-14T17:35:48.040Z,3.77
2019-01-14T17:38:16.125Z,2.03
2019-01-14T17:40:44.262Z,2.57
2019-01-14T17:43:12.353Z,1.57
2019-01-14T17:45:40.766Z,4.50
2019-01-14T17:48:09.389Z,1.60
2019-01-14T17:50:55.525Z,1.67
2019-01-14T17:53:26.422Z,3.67
2019-01-14T17:55:55.006Z,1.67
2019-01-14T17:58:23.108Z,2.57
2019-01-14T18:00:51.237Z,4.57
2019-01-14T18:03:30.356Z,2.43
2019-01-14T18:05:58.498Z,3.13
2019-01-14T18:08:26.610Z,3.77
2019-01-14T18:11:01.505Z,3.20
2019-01-14T18:13:27.036Z,2.37
2019-01-14T18:15:55.349Z,3.13
2019-01-14T18:18:23.542Z,5.37
2019-01-14T18:20:51.962Z,3.30
2019-01-14T18:23:20.071Z,2.33
2019-01-14T18:25:48.313Z,2.40
2019-01-14T18:28:16.421Z,3.13
2019-01-14T18:30:44.507Z,3.87
2019-01-14T18:33:12.847Z,2.53
2019-01-14T18:35:41.018Z,4.63
2019-01-14T18:38:10.045Z,2.70
2019-01-14T18:40:38.137Z,5.90
2019-01-14T18:43:06.270Z,5.23
2019-01-14T18:45:35.131Z,3.23
2019-01-14T18:48:04.960Z,3.83
2019-01-14T18:50:33.204Z,1.90
2019-01-14T18:53:01.861Z,3.03
2019-01-14T18:55:30.061Z,5.63
2019-01-14T18:57:58.635Z,2.87
2019-01-14T19:00:27.293Z,4.60
2019-01-14T19:02:55.446Z,1.87
2019-01-14T19:05:23.521Z,1.87
2019-01-14T19:07:56.222Z,4.57
2019-01-14T19:10:25.618Z,2.03
2019-01-14T19:12:54.149Z,4.03
2019-01-14T19:15:22.541Z,2.27
2019-01-14T19:17:52.204Z,3.03
2019-01-14T19:20:25.813Z,2.33
2019-01-14T19:22:54.049Z,3.97
2019-01-14T19:25:22.233Z,2.80
2019-01-14T19:27:50.465Z,2.60
2019-01-14T19:30:19.222Z,2.13
2019-01-14T19:32:47.452Z,4.90
2019-01-14T19:35:15.657Z,2.33
2019-01-14T19:37:43.966Z,3.30
2019-01-14T19:40:14.297Z,2.57
2019-01-14T19:42:42.784Z,3.63
2019-01-14T19:45:11.213Z,1.47
2019-01-14T19:47:39.501Z,2.13
2019-01-14T19:50:11.303Z,0.87
2019-01-14T19:52:39.526Z,3.00
2019-01-14T19:55:07.861Z,1.03
2019-01-14T19:57:36.088Z,1.60
2019-01-14T20:00:06.142Z,2.70
2019-01-14T20:02:34.489Z,3.17
2019-01-14T20:05:03.242Z,3.97
2019-01-14T20:07:31.706Z,3.27
2019-01-14T20:09:59.782Z,2.23
2019-01-14T20:12:28.005Z,7.00
2019-01-14T20:14:56.077Z,3.73
2019-01-14T20:17:24.197Z,2.70
2019-01-14T20:19:52.390Z,4.93
2019-01-14T20:22:21.020Z,4.93
2019-01-14T20:24:49.136Z,3.23
2019-01-14T20:27:17.261Z,3.60
2019-01-14T20:29:45.358Z,2.73
2019-01-14T20:32:13.487Z,2.07
2019-01-14T20:34:41.584Z,2.63
2019-01-14T20:37:09.858Z,4.47
2019-01-14T20:39:37.938Z,2.57
2019-01-14T20:42:06.162Z,3.20
2019-01-14T20:44:34.600Z,2.53
2019-01-14T20:47:03.386Z,1.57
2019-01-14T20:49:31.637Z,3.37
2019-01-14T20:51:59.736Z,2.80
2019-01-14T20:54:28.086Z,2.37
2019-01-14T20:56:56.168Z,2.00
2019-01-14T20:59:24.289Z,2.73
2019-01-14T21:01:52.477Z,2.13
2019-01-14T21:04:20.857Z,2.93
2019-01-14T21:06:49.265Z,4.73
2019-01-14T21:09:17.527Z,2.23
2019-01-14T21:11:46.071Z,2.73
2019-01-14T21:14:14.313Z,3.03
2019-01-14T21:16:42.418Z,2.70
2019-01-14T21:19:10.921Z,3.20
2019-01-14T21:21:39.013Z,2.37
2019-01-14T21:24:07.553Z,2.23
2019-01-14T21:26:35.654Z,1.63
2019-01-14T21:29:03.913Z,1.43
2019-01-14T21:31:32.605Z,5.27
2019-01-14T21:34:00.897Z,1.17
2019-01-14T21:36:28.997Z,3.97
2019-01-14T21:38:57.137Z,2.23
2019-01-14T21:41:31.277Z,3.27
2019-01-14T21:43:55.490Z,2.67
2019-01-14T21:46:23.957Z,1.23
2019-01-14T21:48:52.565Z,2.40
2019-01-14T21:51:20.861Z,2.03
2019-01-14T21:53:49.011Z,2.33
2019-01-14T21:56:17.556Z,4.13
2019-01-14T21:58:46.121Z,1.90
2019-01-14T22:01:14.233Z,2.03
2019-01-14T22:03:42.397Z,3.17
2019-01-14T22:06:10.958Z,3.57
2019-01-14T22:08:39.205Z,1.50
2019-01-14T22:11:07.405Z,3.20
2019-01-14T22:13:35.598Z,5.43
2019-01-14T22:16:03.902Z,2.40
2019-01-14T22:18:31.980Z,2.80
2019-01-14T22:21:00.628Z,2.50
2019-01-14T22:23:29.182Z,3.03
2019-01-14T22:25:57.429Z,4.87
2019-01-14T22:28:25.757Z,2.37
2019-01-14T22:30:53.982Z,2.23
2019-01-14T22:33:22.102Z,4.17
2019-01-14T22:35:50.240Z,2.80
2019-01-14T22:38:18.336Z,1.53
2019-01-14T22:40:46.730Z,3.97
2019-01-14T22:43:14.804Z,4.13
2019-01-14T22:45:42.925Z,4.33
2019-01-14T22:48:11.050Z,3.03
2019-01-14T22:50:40.856Z,2.47
2019-01-14T22:53:12.105Z,3.63
2019-01-14T22:55:40.869Z,3.63
2019-01-14T22:58:08.943Z,2.23
2019-01-14T23:01:06.605Z,1.80
2019-01-14T23:03:39.561Z,2.03
2019-01-14T23:06:10.118Z,1.53
2019-01-14T23:08:45.226Z,4.63
2019-01-14T23:11:14.975Z,2.67
2019-01-14T23:13:43.496Z,2.33
2019-01-14T23:16:11.671Z,2.87
2019-01-14T23:18:40.114Z,2.37
2019-01-14T23:21:16.357Z,5.00
2019-01-14T23:23:45.645Z,1.83
2019-01-14T23:26:15.652Z,2.70
2019-01-14T23:28:47.020Z,3.03
2019-01-14T23:31:15.863Z,3.03
2019-01-14T23:33:44.280Z,2.60
2019-01-14T23:36:12.590Z,2.87
2019-01-14T23:38:40.629Z,2.87
2019-01-14T23:41:15.136Z,3.90
2019-01-14T23:43:59.526Z,2.00
2019-01-14T23:46:29.721Z,3.03
2019-01-14T23:49:00.310Z,3.00
2019-01-14T23:51:52.123Z,1.53
2019-01-14T23:54:26.447Z,2.33
2019-01-14T23:56:56.409Z,2.37
2019-01-14T23:59:27.275Z,2.80
